Terminal Aerodrome Forecast
Issued by NWS Louisville, KY

Home | Current Version | Previous Version | Text Only | Print | Product List | Glossary On
Versions: 1 2 3 4 5 6 7 8 9 10 11 12 13 14 15 16 17 18 19 20 21 22 23 24 25 26
967
FTUS43 KLMK 140525
TAFLEX
TAF
KLEX 140525Z 1406/1506 09007KT 6SM -DZ BR OVC007
     FM140700 07005KT 4SM -DZ BR OVC004
     FM141600 VRB03KT 2SM -DZ BR OVC006
     FM142000 28005KT 3SM -RA BR OVC003
     FM150200 35002KT 2SM -DZ BR OVC002=

USA.gov is the U.S. government's official web portal to all federal, state and local government web resources and services.